Greenbush, Vermont
Current Conditions -  °F | °C
As of 7:54 AM on Friday 19 Dec 2014 (Local Time) from KVSF Reporting Station
Overcast Overcast  
Wind Chill: 24°   Ceiling: 2500
Heat Index: 29°   Visibility: 10mi
Dew Point: 21°   Wind: 5mph
Humidity: 72%   Direction: 290°WNW
Pressure: 29.95"   Gusts: NA
Location:  43.3938°N, 72.5025°W
Report Text: KVSF 191254Z AUTO 29004KT 10SM BKN025 OVC031 M02/M06 A2995 RMK AO2 SLP151 T10171061 TSNO
Loading
Personal Weather Stations






























Interactive Weather Map New forecast layout! Learn more

10-Day Weather Forecast

Advertisements
Track Severe Weather on mobile